Time;durP1;ratioP1;P1;durP2;ratioP2;P2;SDS_P1;SDS_P2;PMS_P1;PMS_P2;Temp;Humidity;BMP_temperature;BMP_pressure;BME280_temperature;BME280_humidity;BME280_pressure;Samples;Min_cycle;Max_cycle;Signal;HPM_P1;HPM_P2
2021/05/04 00:02:06;;;;;;;3.12;1.02;;;;;;;7.12;53.99;100320.98;1765204;79;21148;-60
2021/05/04 00:04:34;;;;;;;3.10;0.90;;;;;;;7.10;54.33;100319.43;1765923;79;21172;-60
2021/05/04 00:07:01;;;;;;;3.65;1.47;;;;;;;7.07;54.04;100321.77;1795426;79;21128;-60
2021/05/04 00:09:28;;;;;;;3.08;1.17;;;;;;;7.03;54.41;100326.37;1791970;79;21133;-60
2021/05/04 00:11:56;;;;;;;2.85;1.05;;;;;;;7.02;54.38;100329.91;1795188;79;21152;-60
2021/05/04 00:14:24;;;;;;;3.75;1.62;;;;;;;7.02;54.42;100335.14;1788703;79;21259;-60
2021/05/04 00:16:52;;;;;;;4.70;1.42;;;;;;;7.00;54.43;100325.26;1764726;79;21446;-60
2021/05/04 00:19:19;;;;;;;3.70;1.17;;;;;;;6.98;54.59;100331.06;1762397;79;21104;-60
2021/05/04 00:21:48;;;;;;;3.47;1.05;;;;;;;6.96;54.56;100334.27;1790005;79;21160;-60
2021/05/04 00:24:16;;;;;;;3.80;1.32;;;;;;;6.96;54.69;100330.78;1782569;79;21630;-60
2021/05/04 00:26:43;;;;;;;4.53;1.30;;;;;;;6.94;54.75;100332.67;1762699;79;21272;-61
2021/05/04 00:29:11;;;;;;;3.12;1.25;;;;;;;6.93;54.80;100337.08;1790487;79;21115;-60
2021/05/04 00:31:38;;;;;;;3.50;1.57;;;;;;;6.92;54.86;100335.38;1793969;79;21588;-60
2021/05/04 00:34:05;;;;;;;3.17;1.27;;;;;;;6.91;54.95;100340.72;1792805;79;21807;-60
2021/05/04 00:36:34;;;;;;;3.80;1.15;;;;;;;6.87;54.87;100342.22;1793917;79;21143;-60
2021/05/04 00:39:01;;;;;;;3.40;1.20;;;;;;;6.85;55.07;100341.97;1762738;79;21175;-60
2021/05/04 00:41:28;;;;;;;3.20;1.30;;;;;;;6.81;55.08;100332.17;1767877;79;21260;-60
2021/05/04 00:43:56;;;;;;;3.50;1.40;;;;;;;6.81;55.21;100338.72;1793452;79;21103;-60
2021/05/04 00:46:24;;;;;;;3.45;1.20;;;;;;;6.81;55.11;100347.87;1767796;79;21594;-60
2021/05/04 00:48:51;;;;;;;4.67;1.70;;;;;;;6.79;55.36;100334.06;1789714;79;21148;-60
2021/05/04 00:51:20;;;;;;;3.67;1.27;;;;;;;6.79;55.20;100340.59;1791848;79;22334;-60
2021/05/04 00:53:48;;;;;;;5.15;2.00;;;;;;;6.80;55.22;100338.81;1765917;79;22252;-60
2021/05/04 00:56:17;;;;;;;4.20;1.50;;;;;;;6.78;55.44;100338.91;1775084;79;21615;-59
2021/05/04 00:58:46;;;;;;;4.08;1.55;;;;;;;6.76;55.40;100337.31;1747881;79;21135;-59
2021/05/04 01:01:14;;;;;;;4.80;1.60;;;;;;;6.73;55.53;100338.37;1758148;81;21212;-59
2021/05/04 01:03:42;;;;;;;4.00;1.47;;;;;;;6.71;55.63;100341.56;1762247;79;21390;-59
2021/05/04 01:06:09;;;;;;;5.15;1.77;;;;;;;6.69;55.91;100332.50;1766486;79;21219;-59
2021/05/04 01:08:37;;;;;;;3.02;1.25;;;;;;;6.69;55.87;100335.12;1784648;79;21113;-58
2021/05/04 01:11:05;;;;;;;5.25;1.35;;;;;;;6.67;56.12;100344.84;1750195;79;21184;-59
2021/05/04 01:13:33;;;;;;;4.17;1.57;;;;;;;6.66;56.14;100339.71;1789516;79;21138;-59
2021/05/04 01:16:01;;;;;;;4.83;1.65;;;;;;;6.63;56.32;100332.89;1782113;79;21235;-59
2021/05/04 01:18:29;;;;;;;3.98;1.62;;;;;;;6.61;56.45;100332.16;1789569;79;21164;-59
2021/05/04 01:20:57;;;;;;;4.00;1.50;;;;;;;6.61;56.62;100341.30;1796098;79;21124;-59
2021/05/04 01:23:24;;;;;;;5.17;1.85;;;;;;;6.59;56.70;100327.95;1781631;79;21633;-59
2021/05/04 01:25:52;;;;;;;5.30;2.15;;;;;;;6.57;56.62;100331.13;1788452;79;21180;-59
2021/05/04 01:28:19;;;;;;;4.20;1.50;;;;;;;6.55;56.72;100333.02;1792736;79;21243;-58
2021/05/04 01:30:47;;;;;;;4.75;1.60;;;;;;;6.55;56.90;100336.94;1761228;81;21203;-59
2021/05/04 01:33:15;;;;;;;4.53;1.82;;;;;;;6.54;56.82;100342.64;1777710;79;21164;-59
2021/05/04 01:35:42;;;;;;;5.05;1.87;;;;;;;6.51;57.00;100335.82;1750863;79;21128;-59
2021/05/04 01:38:09;;;;;;;4.10;1.72;;;;;;;6.50;56.92;100336.74;1767362;79;21167;-58
2021/05/04 01:40:37;;;;;;;5.10;2.00;;;;;;;6.48;57.09;100339.10;1793827;79;21379;-59
2021/05/04 01:43:04;;;;;;;4.42;1.82;;;;;;;6.45;57.15;100341.42;1766805;80;21199;-59
2021/05/04 01:45:32;;;;;;;4.30;1.75;;;;;;;6.43;57.12;100343.78;1759830;79;21209;-59
2021/05/04 01:48:00;;;;;;;4.25;1.50;;;;;;;6.45;57.29;100344.52;1768039;79;21627;-59
2021/05/04 01:50:28;;;;;;;4.55;1.80;;;;;;;6.42;57.42;100344.70;1772170;79;21141;-59
2021/05/04 01:52:56;;;;;;;3.42;1.40;;;;;;;6.39;57.57;100328.77;1789205;79;22205;-59
2021/05/04 01:55:24;;;;;;;4.50;2.05;;;;;;;6.39;57.80;100340.53;1767188;80;21207;-59
2021/05/04 01:57:52;;;;;;;3.40;1.40;;;;;;;6.40;57.65;100341.36;1751165;80;21204;-59
2021/05/04 02:00:19;;;;;;;4.35;1.60;;;;;;;6.39;57.88;100339.23;1768666;79;21136;-58
2021/05/04 02:02:48;;;;;;;4.78;1.90;;;;;;;6.38;57.97;100347.98;1762131;79;21152;-59
2021/05/04 02:05:15;;;;;;;4.58;1.60;;;;;;;6.38;58.01;100350.60;1785280;79;21392;-59
2021/05/04 02:07:43;;;;;;;3.92;1.70;;;;;;;6.34;58.12;100347.83;1781938;79;21223;-59
2021/05/04 02:10:11;;;;;;;4.08;1.72;;;;;;;6.32;58.42;100349.67;1793243;79;21093;-58
2021/05/04 02:12:42;;;;;;;3.92;1.55;;;;;;;6.30;58.40;100352.86;1798680;79;21559;-59
2021/05/04 02:15:11;;;;;;;3.65;1.40;;;;;;;6.28;58.54;100356.04;1811395;79;21119;-58
2021/05/04 02:17:39;;;;;;;6.45;2.10;;;;;;;6.24;58.75;100354.09;1792509;79;21471;-59
2021/05/04 02:20:08;;;;;;;5.45;1.80;;;;;;;6.22;58.68;100355.10;1779324;80;21144;-59
2021/05/04 02:22:36;;;;;;;4.42;1.67;;;;;;;6.28;58.71;100355.56;1785563;79;21167;-59
2021/05/04 02:25:06;;;;;;;5.90;2.55;;;;;;;6.43;58.49;100361.61;1806980;79;21135;-59
2021/05/04 02:27:34;;;;;;;3.95;1.50;;;;;;;6.53;58.21;100361.03;1811303;79;21136;-59
2021/05/04 02:30:03;;;;;;;3.98;1.82;;;;;;;6.53;58.13;100355.81;1793218;79;22443;-59
2021/05/04 02:32:35;;;;;;;4.67;1.75;;;;;;;6.51;58.22;100354.59;1793219;79;21569;-59
2021/05/04 02:35:04;;;;;;;5.33;1.92;;;;;;;6.47;58.22;100356.57;1797997;79;21194;-60
2021/05/04 02:37:32;;;;;;;5.20;2.42;;;;;;;6.46;58.35;100357.50;1760248;79;21151;-59
2021/05/04 02:40:01;;;;;;;4.42;1.85;;;;;;;6.41;58.50;100362.17;1804114;79;21096;-60
2021/05/04 02:42:30;;;;;;;6.35;2.10;;;;;;;6.38;58.64;100349.77;1782257;79;21740;-60
2021/05/04 02:44:57;;;;;;;6.20;1.98;;;;;;;6.35;58.83;100355.19;1779607;79;21128;-60
2021/05/04 02:47:25;;;;;;;3.92;1.72;;;;;;;6.31;58.90;100351.45;1753088;80;21139;-60
2021/05/04 02:49:53;;;;;;;4.92;2.15;;;;;;;6.29;59.08;100353.33;1779254;80;21160;-60
2021/05/04 02:52:21;;;;;;;6.67;2.25;;;;;;;6.27;59.15;100365.66;1783093;79;21108;-60
2021/05/04 02:54:48;;;;;;;6.58;2.62;;;;;;;6.23;59.37;100362.85;1794277;79;21460;-60
2021/05/04 02:57:17;;;;;;;7.20;2.60;;;;;;;6.23;59.43;100359.41;1794700;79;21175;-59
2021/05/04 02:59:47;;;;;;;5.33;2.17;;;;;;;6.21;59.55;100367.81;1762310;79;21579;-60
2021/05/04 03:02:15;;;;;;;5.87;1.75;;;;;;;6.21;59.64;100370.43;1782002;79;21198;-60
2021/05/04 03:04:43;;;;;;;6.17;2.02;;;;;;;6.18;59.87;100371.44;1791770;79;21124;-60
2021/05/04 03:07:11;;;;;;;5.25;2.12;;;;;;;6.16;59.92;100376.41;1779441;79;21396;-60
2021/05/04 03:09:39;;;;;;;5.37;2.25;;;;;;;6.16;59.91;100373.80;1780890;79;21124;-69
2021/05/04 03:12:07;;;;;;;6.33;2.15;;;;;;;6.22;59.93;100379.48;1795641;79;21331;-60
2021/05/04 03:14:35;;;;;;;6.67;2.00;;;;;;;6.36;59.59;100375.17;1758821;79;21152;-61
2021/05/04 03:17:02;;;;;;;6.08;2.55;;;;;;;6.49;59.41;100374.78;1772756;79;21203;-62
2021/05/04 03:19:31;;;;;;;5.55;2.02;;;;;;;6.60;59.00;100377.52;1794095;79;22276;-62
2021/05/04 03:21:59;;;;;;;5.42;2.45;;;;;;;6.64;58.90;100376.86;1792640;79;21183;-60
2021/05/04 03:24:26;;;;;;;4.40;2.17;;;;;;;6.65;59.01;100387.70;1786191;78;21579;-59
2021/05/04 03:26:54;;;;;;;6.00;2.70;;;;;;;6.67;58.92;100385.81;1793872;79;21187;-64
2021/05/04 03:29:21;;;;;;;4.12;2.05;;;;;;;6.68;58.98;100387.52;1767131;79;21187;-61
2021/05/04 03:31:51;;;;;;;7.15;2.70;;;;;;;6.68;58.82;100396.66;1713795;82;21407;-61
2021/05/04 03:34:20;;;;;;;4.85;2.02;;;;;;;6.65;58.92;100388.53;1730893;82;21227;-60
2021/05/04 03:36:48;;;;;;;5.05;2.17;;;;;;;6.63;59.04;100403.48;1743928;82;21660;-60
2021/05/04 03:39:16;;;;;;;5.03;2.17;;;;;;;6.61;59.13;100393.59;1698546;82;21179;-61
2021/05/04 03:41:43;;;;;;;4.55;2.02;;;;;;;6.60;59.15;100398.92;1732976;82;21125;-60
2021/05/04 03:44:11;;;;;;;6.55;2.25;;;;;;;6.61;59.21;100391.45;1731161;82;21265;-61
2021/05/04 03:46:39;;;;;;;5.60;2.12;;;;;;;6.61;59.27;100394.91;1728743;82;21149;-60
2021/05/04 03:49:10;;;;;;;4.83;2.12;;;;;;;6.63;59.35;100393.50;1732923;82;21092;-64
2021/05/04 03:51:37;;;;;;;8.05;2.60;;;;;;;6.64;59.65;100403.87;1706890;82;21222;-59
2021/05/04 03:54:27;;;;;;;6.58;2.30;;;;;;;6.66;59.59;100402.47;1727743;81;21179;-61
2021/05/04 03:56:57;;;;;;;5.05;2.50;;;;;;;6.66;59.39;100392.01;1665692;84;21211;-62
2021/05/04 03:59:26;;;;;;;4.72;2.40;;;;;;;6.66;59.60;100397.23;1672327;84;21189;-60
2021/05/04 04:01:53;;;;;;;7.35;2.83;;;;;;;6.72;59.29;100400.75;1668874;84;21218;-62
2021/05/04 04:04:21;;;;;;;5.22;2.45;;;;;;;6.86;59.45;100402.02;1640861;85;21225;-61
2021/05/04 04:06:49;;;;;;;6.60;2.33;;;;;;;6.96;58.99;100407.95;1662235;84;21160;-60
2021/05/04 04:09:16;;;;;;;4.78;2.50;;;;;;;6.99;59.09;100405.15;1662859;84;21471;-60
2021/05/04 04:11:44;;;;;;;6.15;2.12;;;;;;;7.02;59.36;100414.11;1636092;86;21159;-61
2021/05/04 04:14:12;;;;;;;5.25;2.17;;;;;;;7.06;58.84;100401.19;1635373;86;21307;-61
2021/05/04 04:16:40;;;;;;;5.80;2.72;;;;;;;7.07;58.92;100401.09;1673787;84;21163;-62
2021/05/04 04:19:08;;;;;;;5.55;2.22;;;;;;;7.12;59.09;100404.72;1664237;86;21211;-61
2021/05/04 04:21:36;;;;;;;6.15;2.75;;;;;;;7.15;58.70;100405.84;1671658;84;21227;-60
2021/05/04 04:24:05;;;;;;;7.45;2.60;;;;;;;7.20;58.75;100412.08;1670444;84;21232;-63
2021/05/04 04:26:32;;;;;;;6.25;2.67;;;;;;;7.19;58.87;100412.53;1663647;84;21181;-60
2021/05/04 04:29:00;;;;;;;6.37;2.50;;;;;;;7.19;58.66;100407.30;1669731;85;21203;-60
2021/05/04 04:31:27;;;;;;;5.42;3.00;;;;;;;7.19;58.88;100398.14;1670252;85;21186;-62
2021/05/04 04:33:55;;;;;;;6.53;2.60;;;;;;;7.21;58.70;100404.14;1670899;84;21251;-60
2021/05/04 04:36:22;;;;;;;4.78;2.27;;;;;;;7.24;58.59;100399.98;1634076;86;21223;-61
2021/05/04 04:38:50;;;;;;;6.20;2.87;;;;;;;7.28;58.50;100403.27;1672348;84;21523;-63
2021/05/04 04:41:20;;;;;;;5.95;2.62;;;;;;;7.30;58.68;100403.16;1638078;85;21267;-60
2021/05/04 04:43:47;;;;;;;5.53;2.58;;;;;;;7.35;58.84;100405.84;1670004;84;21240;-62
2021/05/04 04:46:15;;;;;;;5.40;2.55;;;;;;;7.42;58.94;100401.03;1660835;84;21381;-61
2021/05/04 04:48:43;;;;;;;4.40;2.22;;;;;;;7.57;58.34;100415.71;1609686;87;21204;-62
2021/05/04 04:51:12;;;;;;;5.03;2.30;;;;;;;7.78;58.10;100412.13;1615685;87;21636;-62
2021/05/04 04:53:41;;;;;;;7.47;3.22;;;;;;;7.92;57.54;100408.56;1664042;84;21648;-61
2021/05/04 04:56:08;;;;;;;4.75;2.52;;;;;;;8.01;57.41;100420.19;1669830;84;21152;-64
2021/05/04 04:58:36;;;;;;;6.22;2.80;;;;;;;8.05;57.37;100412.47;1662695;84;21400;-60
2021/05/04 05:01:04;;;;;;;7.65;2.98;;;;;;;8.09;57.30;100406.09;1664624;84;21179;-60
2021/05/04 05:03:31;;;;;;;5.55;2.37;;;;;;;8.16;57.05;100406.50;1664633;85;21151;-61
2021/05/04 05:06:00;;;;;;;5.87;3.17;;;;;;;8.19;56.68;100409.75;1669945;84;21240;-61
2021/05/04 05:21:31;;;;;;;5.92;3.30;;;;;;;9.77;53.03;100416.28;1873585;74;23282;-60
2021/05/04 05:24:02;;;;;;;5.92;2.77;;;;;;;9.85;53.25;100428.36;1853307;75;21167;-61
2021/05/04 05:26:30;;;;;;;6.10;2.87;;;;;;;9.82;53.09;100432.53;1825279;77;21191;-61
2021/05/04 05:28:58;;;;;;;6.10;3.45;;;;;;;9.81;53.17;100435.27;1838992;75;21116;-62
2021/05/04 05:31:30;;;;;;;5.95;2.90;;;;;;;9.76;52.86;100430.84;1843899;77;21195;-61
2021/05/04 05:33:56;;;;;;;6.80;3.17;;;;;;;9.69;52.87;100432.27;1782220;79;21207;-61
2021/05/04 05:36:24;;;;;;;6.45;3.05;;;;;;;9.57;53.07;100431.41;1790516;78;21160;-61
2021/05/04 05:38:52;;;;;;;5.65;3.08;;;;;;;9.48;53.40;100436.39;1776950;80;21256;-61
2021/05/04 05:41:21;;;;;;;7.33;3.17;;;;;;;9.39;53.51;100430.98;1786207;80;21206;-62
2021/05/04 05:43:49;;;;;;;6.45;3.30;;;;;;;9.34;54.06;100435.25;1820376;78;21706;-60
2021/05/04 05:46:17;;;;;;;6.83;3.15;;;;;;;9.37;53.52;100435.03;1789633;78;21567;-64
2021/05/04 05:48:45;;;;;;;6.70;3.22;;;;;;;9.33;53.42;100441.93;1772133;80;21220;-61
2021/05/04 05:51:13;;;;;;;4.47;2.42;;;;;;;9.27;53.38;100445.38;1761170;78;21187;-63
2021/05/04 05:53:41;;;;;;;7.03;3.00;;;;;;;9.24;53.90;100447.39;1753980;80;21183;-62
2021/05/04 05:56:08;;;;;;;5.30;2.55;;;;;;;9.24;53.96;100433.77;1812914;78;21196;-60
2021/05/04 05:58:36;;;;;;;5.92;3.20;;;;;;;9.31;54.27;100444.66;1767747;80;21706;-60
2021/05/04 06:01:03;;;;;;;8.70;3.20;;;;;;;9.39;53.99;100422.62;1754988;79;21152;-65
2021/05/04 06:03:32;;;;;;;4.97;2.55;;;;;;;9.49;53.75;100427.54;1758695;80;21231;-61
2021/05/04 06:05:59;;;;;;;5.90;2.92;;;;;;;9.55;53.26;100442.48;1812491;77;22347;-61
2021/05/04 06:08:27;;;;;;;4.42;2.40;;;;;;;9.55;53.33;100436.77;1774265;80;21179;-62
2021/05/04 06:10:54;;;;;;;5.22;2.27;;;;;;;9.57;53.24;100431.41;1781122;78;21219;-62
2021/05/04 06:13:23;;;;;;;7.37;3.47;;;;;;;9.63;53.38;100417.78;1796846;77;21199;-62
2021/05/04 06:15:51;;;;;;;5.95;2.37;;;;;;;9.67;52.49;100439.78;1805557;77;21199;-68
2021/05/04 06:18:18;;;;;;;6.10;2.95;;;;;;;9.72;52.23;100437.30;1802526;77;21227;-64
2021/05/04 06:20:46;;;;;;;6.60;3.45;;;;;;;9.75;52.94;100427.39;1789510;78;21156;-62
2021/05/04 06:23:14;;;;;;;5.45;2.72;;;;;;;9.82;52.69;100433.84;1764296;78;21200;-61
2021/05/04 06:25:41;;;;;;;6.00;2.58;;;;;;;9.92;52.00;100434.44;1804942;77;21147;-61
2021/05/04 06:28:09;;;;;;;5.60;3.02;;;;;;;9.97;51.99;100441.04;1801898;77;22125;-61
2021/05/04 06:30:38;;;;;;;4.50;2.27;;;;;;;10.01;51.65;100428.49;1838321;76;21204;-62
2021/05/04 06:33:12;;;;;;;5.47;2.45;;;;;;;10.03;51.74;100429.20;1805853;77;21192;-62
2021/05/04 06:35:42;;;;;;;5.87;2.30;;;;;;;10.08;51.82;100428.86;1813961;76;21156;-62
2021/05/04 06:38:14;;;;;;;5.45;2.98;;;;;;;10.18;51.07;100425.38;1843062;77;21147;-61
2021/05/04 06:40:41;;;;;;;5.80;2.60;;;;;;;10.28;51.21;100430.77;1813203;77;21553;-61
2021/05/04 06:43:09;;;;;;;7.22;3.45;;;;;;;10.36;50.89;100419.70;1772211;79;21132;-63
2021/05/04 06:45:37;;;;;;;8.38;3.10;;;;;;;10.40;50.55;100438.20;1776149;79;21117;-61
2021/05/04 06:48:06;;;;;;;5.87;3.02;;;;;;;10.50;50.25;100428.63;1802013;78;21184;-63
2021/05/04 06:50:34;;;;;;;4.53;2.10;;;;;;;10.64;49.96;100425.39;1749439;80;21207;-61
2021/05/04 06:53:03;;;;;;;10.38;2.62;;;;;;;10.72;48.48;100433.02;1803412;79;22287;-61
2021/05/04 06:55:32;;;;;;;5.22;2.50;;;;;;;10.77;48.76;100427.39;1768648;80;21121;-61
2021/05/04 06:57:59;;;;;;;4.33;2.12;;;;;;;10.82;47.68;100437.56;1751945;79;21149;-63
2021/05/04 07:00:29;;;;;;;5.95;2.70;;;;;;;10.81;47.94;100461.74;1768747;79;21212;-61
2021/05/04 07:02:57;;;;;;;6.20;2.40;;;;;;;10.79;47.54;100445.21;1771233;79;21136;-62
2021/05/04 07:05:26;;;;;;;5.10;2.67;;;;;;;10.75;47.68;100431.47;1847258;77;21197;-61
2021/05/04 07:07:55;;;;;;;5.15;2.05;;;;;;;10.71;47.45;100443.21;1779388;79;21153;-67
2021/05/04 07:10:24;;;;;;;5.97;2.35;;;;;;;10.72;47.27;100440.92;1841788;77;21148;-62
2021/05/04 07:12:51;;;;;;;4.60;1.90;;;;;;;10.75;47.27;100441.17;1805648;76;21212;-63
2021/05/04 07:15:19;;;;;;;5.10;1.98;;;;;;;10.80;47.54;100447.39;1820016;77;21219;-62
2021/05/04 07:17:48;;;;;;;6.22;2.62;;;;;;;10.83;47.45;100454.55;1845943;77;21191;-61
2021/05/04 07:20:21;;;;;;;5.58;2.50;;;;;;;10.85;47.84;100453.12;1838159;76;21184;-63
2021/05/04 07:22:54;;;;;;;6.45;2.80;;;;;;;10.84;47.36;100439.09;1731123;82;21165;-62
2021/05/04 07:25:19;;;;;;;5.80;2.85;;;;;;;10.85;47.66;100466.28;1742862;80;21181;-58
2021/05/04 07:27:47;;;;;;;5.00;2.12;;;;;;;10.81;48.11;100464.83;1750754;81;21145;-59
2021/05/04 07:30:17;;;;;;;7.30;2.92;;;;;;;10.79;49.09;100471.53;1746281;80;21376;-59
2021/05/04 07:32:45;;;;;;;5.60;2.77;;;;;;;10.87;49.22;100463.04;1753189;80;21224;-65
2021/05/04 07:35:13;;;;;;;6.80;2.40;;;;;;;10.94;48.31;100454.54;1747602;81;21719;-62
2021/05/04 07:37:41;;;;;;;5.28;2.33;;;;;;;10.98;48.84;100480.14;1815471;78;21141;-64
2021/05/04 07:40:11;;;;;;;5.83;2.42;;;;;;;11.01;48.12;100473.31;1814306;77;21160;-65
2021/05/04 07:42:38;;;;;;;5.65;2.30;;;;;;;11.03;47.56;100458.67;1811415;78;21391;-64
2021/05/04 07:45:07;;;;;;;4.45;2.00;;;;;;;11.01;47.30;100478.58;1821145;77;21149;-65
2021/05/04 07:47:35;;;;;;;4.97;2.15;;;;;;;10.97;47.06;100477.13;1798207;78;21595;-63
2021/05/04 07:50:05;;;;;;;5.50;2.25;;;;;;;10.93;47.10;100472.59;1822402;77;21128;-67
2021/05/04 07:52:33;;;;;;;4.58;1.80;;;;;;;10.95;47.77;100462.77;1807751;77;21231;-66
2021/05/04 07:55:00;;;;;;;4.30;1.87;;;;;;;11.05;47.40;100471.27;1797677;77;21860;-65
2021/05/04 07:57:28;;;;;;;5.28;2.33;;;;;;;11.15;47.49;100469.06;1823668;77;21188;-60
2021/05/04 07:59:55;;;;;;;6.37;2.40;;;;;;;11.26;46.74;100496.33;1743129;80;21259;-64
2021/05/04 08:02:23;;;;;;;7.67;2.08;;;;;;;11.27;46.82;100473.81;1749267;80;21113;-62
2021/05/04 08:04:52;;;;;;;5.58;1.98;;;;;;;11.25;46.23;100488.09;1740658;80;21146;-64
2021/05/04 08:07:21;;;;;;;5.85;3.40;;;;;;;11.22;46.00;100502.33;1753795;81;21201;-65
2021/05/04 08:09:50;;;;;;;4.95;2.10;;;;;;;11.18;46.57;100475.04;1746899;80;21173;-61
2021/05/04 08:12:18;;;;;;;4.53;2.22;;;;;;;11.18;47.05;100496.11;1743584;79;21667;-63
2021/05/04 08:14:46;;;;;;;5.03;2.20;;;;;;;11.17;46.80;100478.66;1789646;77;21176;-63
2021/05/04 08:17:24;;;;;;;5.28;2.27;;;;;;;11.20;47.40;100479.23;1825876;78;21171;-64
2021/05/04 08:19:51;;;;;;;5.60;2.62;;;;;;;11.30;46.37;100498.59;1747383;80;21434;-61
2021/05/04 08:22:19;;;;;;;5.97;2.35;;;;;;;11.30;46.47;100480.16;1764611;79;21136;-61
2021/05/04 08:24:46;;;;;;;5.40;2.17;;;;;;;11.28;45.52;100481.23;1816768;77;21129;-61
2021/05/04 08:27:14;;;;;;;4.92;2.17;;;;;;;11.30;46.32;100489.87;1822659;77;21152;-61
2021/05/04 08:29:41;;;;;;;5.03;2.35;;;;;;;11.33;45.35;100505.40;1843791;76;21176;-65
2021/05/04 08:32:09;;;;;;;5.65;2.87;;;;;;;11.30;45.72;100492.01;1831301;77;21189;-63
2021/05/04 08:34:37;;;;;;;5.20;2.30;;;;;;;11.31;45.83;100482.30;1844133;77;21555;-64
2021/05/04 08:37:05;;;;;;;5.33;2.45;;;;;;;11.29;45.66;100478.47;1823382;76;21649;-64
2021/05/04 08:39:33;;;;;;;4.97;2.65;;;;;;;11.27;46.15;100484.35;1831632;76;21163;-64
2021/05/04 08:42:01;;;;;;;5.08;2.35;;;;;;;11.25;46.24;100488.92;1744615;82;21149;-57
2021/05/04 08:44:28;;;;;;;4.78;2.17;;;;;;;11.24;46.68;100489.86;1790019;79;21816;-66
2021/05/04 08:46:57;;;;;;;4.47;2.35;;;;;;;11.24;45.99;100493.81;1763834;80;21565;-69
2021/05/04 08:49:26;;;;;;;4.87;2.08;;;;;;;11.21;45.82;100485.33;1795098;79;21168;-64
2021/05/04 08:51:56;;;;;;;5.83;2.33;;;;;;;11.21;45.48;100490.11;1769601;80;21132;-60
2021/05/04 08:54:23;;;;;;;5.05;2.42;;;;;;;11.21;46.08;100484.84;1767803;79;21466;-59
2021/05/04 08:56:51;;;;;;;5.97;2.90;;;;;;;11.26;46.35;100491.92;1767429;79;21224;-62
2021/05/04 08:59:21;;;;;;;7.25;2.02;;;;;;;11.29;45.75;100515.35;1794102;78;21211;-64
2021/05/04 09:01:51;;;;;;;4.25;1.60;;;;;;;11.25;45.23;100507.84;1782156;78;21116;-63
2021/05/04 09:04:49;;;;;;;4.80;2.27;;;;;;;11.15;45.93;100498.53;1744717;80;21141;-64
2021/05/04 09:07:38;;;;;;;10.18;2.42;;;;;;;11.09;45.79;100505.59;1759123;79;26010;-62
2021/05/04 09:10:16;;;;;;;5.55;2.72;;;;;;;10.93;46.22;100521.80;1756348;79;21212;-62
2021/05/04 09:21:15;;;;;;;4.65;2.17;;;;;;;10.74;47.19;100514.48;1760413;79;21124;-61
2021/05/04 09:23:45;;;;;;;5.72;2.50;;;;;;;10.81;46.15;100514.39;1745792;81;21207;-59
2021/05/04 09:26:22;;;;;;;4.55;2.15;;;;;;;10.87;45.58;100544.16;1788864;79;21141;-63
2021/05/04 09:28:51;;;;;;;4.83;1.80;;;;;;;10.93;45.28;100519.16;1756866;80;21149;-62
2021/05/04 09:31:27;;;;;;;4.22;2.00;;;;;;;10.95;44.78;100531.72;1795012;78;21169;-62
2021/05/04 09:33:58;;;;;;;4.17;1.92;;;;;;;10.98;44.63;100517.00;1741702;79;21151;-62
2021/05/04 09:36:43;;;;;;;4.42;1.82;;;;;;;11.06;44.56;100525.13;1749966;80;21156;-62
2021/05/04 09:39:14;;;;;;;4.90;1.80;;;;;;;11.11;45.00;100506.30;1798166;78;21585;-62
2021/05/04 09:41:41;;;;;;;7.03;2.20;;;;;;;11.20;45.29;100507.38;1774885;79;21552;-61
2021/05/04 09:44:10;;;;;;;4.22;1.85;;;;;;;11.28;45.09;100512.38;1775120;79;21207;-61
2021/05/04 09:46:48;;;;;;;6.22;2.30;;;;;;;11.30;45.42;100503.04;1801488;76;21127;-62
2021/05/04 09:49:28;;;;;;;4.83;2.00;;;;;;;11.30;45.39;100488.06;1832593;76;21205;-61
2021/05/04 09:52:35;;;;;;;5.28;2.27;;;;;;;11.41;45.58;100495.56;1867466;74;22724;-61
2021/05/04 09:55:08;;;;;;;6.17;2.10;;;;;;;11.42;45.31;100484.08;1841605;77;21540;-62
2021/05/04 09:57:41;;;;;;;4.10;1.87;;;;;;;11.46;45.51;100498.16;1824216;77;21204;-62
2021/05/04 10:00:12;;;;;;;5.30;2.58;;;;;;;11.57;45.26;100495.16;1852490;77;21025;-63
2021/05/04 10:02:42;;;;;;;4.75;2.12;;;;;;;11.69;44.63;100481.78;1849727;77;21626;-62
2021/05/04 10:05:14;;;;;;;5.37;2.27;;;;;;;11.73;44.81;100482.84;1858347;75;21447;-63
2021/05/04 10:07:42;;;;;;;5.40;2.10;;;;;;;11.82;44.93;100484.73;1789421;79;21611;-61
2021/05/04 10:10:12;;;;;;;4.10;2.00;;;;;;;11.90;45.05;100480.94;1755258;80;21145;-62
2021/05/04 10:12:43;;;;;;;6.28;2.50;;;;;;;12.00;44.21;100488.48;1803240;78;21160;-63
2021/05/04 10:15:13;;;;;;;4.15;1.87;;;;;;;12.03;43.19;100487.38;1776928;80;21569;-63
2021/05/04 10:17:42;;;;;;;4.12;1.72;;;;;;;12.04;43.47;100481.98;1754851;81;21117;-63
2021/05/04 10:20:18;;;;;;;3.00;1.30;;;;;;;12.07;43.35;100477.77;1779009;79;21168;-62
2021/05/04 10:22:47;;;;;;;3.77;1.77;;;;;;;12.15;40.39;100472.31;1810839;77;21988;-63
2021/05/04 10:25:19;;;;;;;4.22;1.52;;;;;;;12.18;40.99;100464.14;1813990;78;21218;-63
2021/05/04 10:27:52;;;;;;;3.52;1.47;;;;;;;12.19;41.12;100467.14;1809119;79;21151;-63
2021/05/04 10:30:22;;;;;;;3.85;1.55;;;;;;;12.23;42.07;100460.63;1783108;79;21153;-63
2021/05/04 10:32:59;;;;;;;3.90;1.70;;;;;;;12.30;41.66;100457.80;1776525;80;21207;-62
2021/05/04 10:35:34;;;;;;;3.47;1.40;;;;;;;12.35;41.92;100467.47;1764689;78;21234;-64
2021/05/04 10:38:08;;;;;;;3.50;1.47;;;;;;;12.33;40.92;100470.73;1778191;80;21191;-64
2021/05/04 10:40:39;;;;;;;3.05;1.30;;;;;;;12.30;41.14;100463.08;1777869;80;21216;-63
2021/05/04 10:43:30;;;;;;;4.37;1.42;;;;;;;12.33;41.61;100469.91;1783354;79;21215;-63
2021/05/04 10:46:00;;;;;;;4.08;1.65;;;;;;;12.38;40.44;100466.39;1780661;79;21199;-67
2021/05/04 10:48:42;;;;;;;3.55;1.35;;;;;;;12.40;40.55;100473.68;1771099;80;21455;-63
2021/05/04 10:51:15;;;;;;;2.70;1.02;;;;;;;12.44;40.37;100464.55;1779167;80;21219;-64
2021/05/04 10:54:01;;;;;;;3.83;1.47;;;;;;;12.51;40.04;100456.91;1823721;78;21210;-65
2021/05/04 10:56:38;;;;;;;3.42;1.20;;;;;;;12.55;40.57;100461.79;1800463;78;21171;-66
2021/05/04 10:59:26;;;;;;;3.37;1.20;;;;;;;12.67;40.54;100455.92;1795154;79;21131;-64
2021/05/04 11:02:19;;;;;;;3.17;1.17;;;;;;;12.77;40.05;100456.78;1817555;77;21179;-65
2021/05/04 11:04:48;;;;;;;4.67;1.42;;;;;;;12.82;39.65;100460.34;1813181;77;21187;-64
2021/05/04 11:07:57;;;;;;;3.85;1.25;;;;;;;12.80;39.50;100455.19;1786131;79;21245;-67
2021/05/04 11:10:26;;;;;;;4.08;1.40;;;;;;;12.81;39.68;100463.97;1658379;84;21576;-66
2021/05/04 11:12:55;;;;;;;3.85;1.32;;;;;;;12.79;39.73;100477.77;1669816;85;21281;-65
2021/05/04 11:15:27;;;;;;;3.75;1.32;;;;;;;12.80;39.45;100453.05;1711801;79;21851;-65
2021/05/04 11:17:54;;;;;;;3.10;1.20;;;;;;;12.82;39.85;100449.78;1788626;80;21152;-66
2021/05/04 11:20:32;;;;;;;2.70;1.00;;;;;;;12.85;38.91;100445.55;1827012;78;21206;-65
2021/05/04 11:23:01;;;;;;;3.27;1.20;;;;;;;12.86;38.54;100436.67;1828859;77;21171;-64
2021/05/04 11:25:38;;;;;;;5.10;1.20;;;;;;;12.80;38.12;100447.27;1791688;78;21203;-64
2021/05/04 11:28:06;;;;;;;3.67;1.07;;;;;;;12.71;38.33;100458.66;1790795;79;21495;-65
2021/05/04 11:30:41;;;;;;;2.45;0.93;;;;;;;12.69;38.93;100455.79;1794151;80;21383;-65
2021/05/04 11:33:28;;;;;;;2.70;0.80;;;;;;;12.70;38.59;100449.06;1815481;77;21203;-65
2021/05/04 11:35:56;;;;;;;2.77;1.02;;;;;;;12.73;38.03;100450.61;1794267;78;21187;-65
2021/05/04 11:38:25;;;;;;;2.90;1.22;;;;;;;12.72;38.11;100444.47;1805516;78;21092;-64
2021/05/04 11:40:54;;;;;;;3.90;1.10;;;;;;;12.77;38.27;100446.71;1823813;77;21247;-66
2021/05/04 11:43:22;;;;;;;3.58;0.95;;;;;;;12.83;38.71;100441.72;1827285;78;21154;-66
2021/05/04 11:45:50;;;;;;;2.37;0.80;;;;;;;12.93;38.13;100452.80;1779293;79;21152;-66
2021/05/04 11:48:19;;;;;;;2.87;0.90;;;;;;;12.92;37.79;100426.03;1792723;80;21152;-64
2021/05/04 11:50:50;;;;;;;3.05;1.20;;;;;;;12.96;37.57;100436.66;1791572;79;21211;-66
2021/05/04 11:53:18;;;;;;;3.95;1.00;;;;;;;13.07;37.44;100429.11;1794614;78;21222;-66
2021/05/04 11:55:56;;;;;;;7.67;2.90;;;;;;;13.23;36.77;100431.19;1815255;77;21195;-66
2021/05/04 11:58:26;;;;;;;2.37;0.90;;;;;;;13.38;36.79;100443.90;1786628;79;21126;-65
2021/05/04 12:01:01;;;;;;;3.00;1.20;;;;;;;13.45;35.41;100433.60;1823953;78;21152;-66
2021/05/04 12:03:31;;;;;;;4.62;1.15;;;;;;;13.52;35.25;100437.84;1819903;77;21103;-65